sensor_id;sensor_type;location;lat;lon;timestamp;temperature;humidity
16273;DHT22;8244;50.044;9.006;2022-11-04T00:02:48;11.40;99.90
16273;DHT22;8244;50.044;9.006;2022-11-04T00:07:51;11.40;99.90
16273;DHT22;8244;50.044;9.006;2022-11-04T00:13:10;11.40;99.90
16273;DHT22;8244;50.044;9.006;2022-11-04T00:18:11;11.40;99.90
16273;DHT22;8244;50.044;9.006;2022-11-04T00:23:14;11.30;99.90
16273;DHT22;8244;50.044;9.006;2022-11-04T00:28:34;11.30;99.90
16273;DHT22;8244;50.044;9.006;2022-11-04T00:33:45;11.30;99.90
16273;DHT22;8244;50.044;9.006;2022-11-04T00:38:49;11.30;99.90
16273;DHT22;8244;50.044;9.006;2022-11-04T00:43:51;11.30;99.90
16273;DHT22;8244;50.044;9.006;2022-11-04T00:48:53;11.30;99.90
16273;DHT22;8244;50.044;9.006;2022-11-04T00:53:56;11.30;99.90
16273;DHT22;8244;50.044;9.006;2022-11-04T00:58:59;11.30;99.90
16273;DHT22;8244;50.044;9.006;2022-11-04T01:04:00;11.30;99.90
16273;DHT22;8244;50.044;9.006;2022-11-04T01:09:05;11.30;99.90
16273;DHT22;8244;50.044;9.006;2022-11-04T01:14:07;11.30;99.90
16273;DHT22;8244;50.044;9.006;2022-11-04T01:19:09;11.20;99.90
16273;DHT22;8244;50.044;9.006;2022-11-04T01:24:12;11.20;99.90
16273;DHT22;8244;50.044;9.006;2022-11-04T01:29:14;11.20;99.90
16273;DHT22;8244;50.044;9.006;2022-11-04T01:34:16;11.20;99.90
16273;DHT22;8244;50.044;9.006;2022-11-04T01:39:19;11.20;99.90
16273;DHT22;8244;50.044;9.006;2022-11-04T01:44:49;11.20;99.90
16273;DHT22;8244;50.044;9.006;2022-11-04T01:49:53;11.20;99.90
16273;DHT22;8244;50.044;9.006;2022-11-04T01:55:02;11.20;99.90
16273;DHT22;8244;50.044;9.006;2022-11-04T02:00:08;11.10;99.90
16273;DHT22;8244;50.044;9.006;2022-11-04T02:05:09;11.20;99.90
16273;DHT22;8244;50.044;9.006;2022-11-04T02:10:12;11.20;99.90
16273;DHT22;8244;50.044;9.006;2022-11-04T02:15:15;11.20;99.90
16273;DHT22;8244;50.044;9.006;2022-11-04T02:20:27;11.20;99.90
16273;DHT22;8244;50.044;9.006;2022-11-04T02:25:40;11.20;99.90
16273;DHT22;8244;50.044;9.006;2022-11-04T02:30:51;11.20;99.90
16273;DHT22;8244;50.044;9.006;2022-11-04T02:36:01;11.10;99.90
16273;DHT22;8244;50.044;9.006;2022-11-04T02:41:12;11.10;99.90
16273;DHT22;8244;50.044;9.006;2022-11-04T02:46:22;11.10;99.90
16273;DHT22;8244;50.044;9.006;2022-11-04T02:51:28;11.10;99.90
16273;DHT22;8244;50.044;9.006;2022-11-04T02:56:36;11.00;99.90
16273;DHT22;8244;50.044;9.006;2022-11-04T03:01:42;11.00;99.90
16273;DHT22;8244;50.044;9.006;2022-11-04T03:06:48;10.90;99.90
16273;DHT22;8244;50.044;9.006;2022-11-04T03:11:54;10.90;99.90
16273;DHT22;8244;50.044;9.006;2022-11-04T03:17:02;10.80;99.90
16273;DHT22;8244;50.044;9.006;2022-11-04T03:22:08;10.80;99.90
16273;DHT22;8244;50.044;9.006;2022-11-04T03:27:17;10.80;99.90
16273;DHT22;8244;50.044;9.006;2022-11-04T03:32:26;10.70;99.90
16273;DHT22;8244;50.044;9.006;2022-11-04T03:37:31;10.60;99.90
16273;DHT22;8244;50.044;9.006;2022-11-04T03:42:36;10.60;99.90
16273;DHT22;8244;50.044;9.006;2022-11-04T03:47:40;10.50;99.90
16273;DHT22;8244;50.044;9.006;2022-11-04T03:52:43;10.50;99.90
16273;DHT22;8244;50.044;9.006;2022-11-04T03:57:48;10.40;99.90
16273;DHT22;8244;50.044;9.006;2022-11-04T04:03:06;10.40;99.90
16273;DHT22;8244;50.044;9.006;2022-11-04T04:08:17;10.30;99.90
16273;DHT22;8244;50.044;9.006;2022-11-04T04:13:27;10.30;99.90
16273;DHT22;8244;50.044;9.006;2022-11-04T04:18:37;10.30;99.90
16273;DHT22;8244;50.044;9.006;2022-11-04T04:23:40;10.30;99.90
16273;DHT22;8244;50.044;9.006;2022-11-04T04:29:02;10.20;99.90
16273;DHT22;8244;50.044;9.006;2022-11-04T04:34:07;10.10;99.90
16273;DHT22;8244;50.044;9.006;2022-11-04T04:39:11;10.10;99.90
16273;DHT22;8244;50.044;9.006;2022-11-04T04:44:31;10.00;99.90
16273;DHT22;8244;50.044;9.006;2022-11-04T04:49:52;9.90;99.90
16273;DHT22;8244;50.044;9.006;2022-11-04T04:54:54;9.80;99.90
16273;DHT22;8244;50.044;9.006;2022-11-04T04:59:56;9.70;99.90
16273;DHT22;8244;50.044;9.006;2022-11-04T05:04:58;9.60;99.90
16273;DHT22;8244;50.044;9.006;2022-11-04T05:10:00;9.50;99.90
16273;DHT22;8244;50.044;9.006;2022-11-04T05:15:02;9.50;99.90
16273;DHT22;8244;50.044;9.006;2022-11-04T05:20:07;9.40;99.90
16273;DHT22;8244;50.044;9.006;2022-11-04T05:25:09;9.40;99.90
16273;DHT22;8244;50.044;9.006;2022-11-04T05:30:11;9.30;99.90
16273;DHT22;8244;50.044;9.006;2022-11-04T05:35:14;9.20;99.90
16273;DHT22;8244;50.044;9.006;2022-11-04T05:40:16;9.10;99.90
16273;DHT22;8244;50.044;9.006;2022-11-04T05:45:18;9.10;99.90
16273;DHT22;8244;50.044;9.006;2022-11-04T05:50:21;9.00;99.90
16273;DHT22;8244;50.044;9.006;2022-11-04T05:55:23;9.00;99.90
16273;DHT22;8244;50.044;9.006;2022-11-04T06:00:25;9.00;99.90
16273;DHT22;8244;50.044;9.006;2022-11-04T06:05:28;8.90;99.90
16273;DHT22;8244;50.044;9.006;2022-11-04T06:10:30;8.90;99.90
16273;DHT22;8244;50.044;9.006;2022-11-04T06:15:32;8.90;99.90
16273;DHT22;8244;50.044;9.006;2022-11-04T06:20:35;8.80;99.90
16273;DHT22;8244;50.044;9.006;2022-11-04T06:25:36;8.80;99.90
16273;DHT22;8244;50.044;9.006;2022-11-04T06:30:38;8.80;99.90
16273;DHT22;8244;50.044;9.006;2022-11-04T06:35:41;8.80;99.90
16273;DHT22;8244;50.044;9.006;2022-11-04T06:40:42;8.80;99.90
16273;DHT22;8244;50.044;9.006;2022-11-04T06:45:52;8.80;99.90
16273;DHT22;8244;50.044;9.006;2022-11-04T06:50:55;8.80;99.90
16273;DHT22;8244;50.044;9.006;2022-11-04T06:56:01;8.80;99.90
16273;DHT22;8244;50.044;9.006;2022-11-04T07:01:05;8.70;99.90
16273;DHT22;8244;50.044;9.006;2022-11-04T07:06:09;8.70;99.90
16273;DHT22;8244;50.044;9.006;2022-11-04T07:11:11;8.80;99.90
16273;DHT22;8244;50.044;9.006;2022-11-04T07:16:13;8.80;99.90
16273;DHT22;8244;50.044;9.006;2022-11-04T07:21:17;8.90;99.90
16273;DHT22;8244;50.044;9.006;2022-11-04T07:26:18;8.90;99.90
16273;DHT22;8244;50.044;9.006;2022-11-04T07:31:20;9.00;99.90
16273;DHT22;8244;50.044;9.006;2022-11-04T07:36:24;9.10;99.90
16273;DHT22;8244;50.044;9.006;2022-11-04T07:41:26;9.20;99.90
16273;DHT22;8244;50.044;9.006;2022-11-04T07:46:28;9.20;99.90
16273;DHT22;8244;50.044;9.006;2022-11-04T07:51:31;9.30;99.90
16273;DHT22;8244;50.044;9.006;2022-11-04T07:56:33;9.40;99.90
16273;DHT22;8244;50.044;9.006;2022-11-04T08:01:35;9.50;99.90
16273;DHT22;8244;50.044;9.006;2022-11-04T08:06:38;9.60;99.90
16273;DHT22;8244;50.044;9.006;2022-11-04T08:11:39;9.70;99.90
16273;DHT22;8244;50.044;9.006;2022-11-04T08:16:41;9.80;99.90
16273;DHT22;8244;50.044;9.006;2022-11-04T08:21:44;9.80;99.90
16273;DHT22;8244;50.044;9.006;2022-11-04T08:26:45;10.00;99.90
16273;DHT22;8244;50.044;9.006;2022-11-04T08:31:47;10.10;99.90
16273;DHT22;8244;50.044;9.006;2022-11-04T08:36:50;10.20;99.90
16273;DHT22;8244;50.044;9.006;2022-11-04T08:41:53;10.40;99.90
16273;DHT22;8244;50.044;9.006;2022-11-04T08:46:54;10.50;99.90
16273;DHT22;8244;50.044;9.006;2022-11-04T08:51:57;10.70;99.90
16273;DHT22;8244;50.044;9.006;2022-11-04T08:57:01;10.80;99.90
16273;DHT22;8244;50.044;9.006;2022-11-04T09:02:03;10.90;99.90
16273;DHT22;8244;50.044;9.006;2022-11-04T09:07:06;11.00;99.90
16273;DHT22;8244;50.044;9.006;2022-11-04T09:12:08;11.10;99.90
16273;DHT22;8244;50.044;9.006;2022-11-04T09:17:10;11.30;99.90
16273;DHT22;8244;50.044;9.006;2022-11-04T09:22:14;11.40;99.90
16273;DHT22;8244;50.044;9.006;2022-11-04T09:27:15;11.60;99.90
16273;DHT22;8244;50.044;9.006;2022-11-04T09:32:17;11.80;99.90
16273;DHT22;8244;50.044;9.006;2022-11-04T09:37:20;11.90;99.90
16273;DHT22;8244;50.044;9.006;2022-11-04T09:42:37;12.10;99.90
16273;DHT22;8244;50.044;9.006;2022-11-04T09:47:46;12.20;99.90
16273;DHT22;8244;50.044;9.006;2022-11-04T09:52:54;12.40;99.90
16273;DHT22;8244;50.044;9.006;2022-11-04T09:57:56;12.50;99.90
16273;DHT22;8244;50.044;9.006;2022-11-04T10:03:10;12.60;99.90
16273;DHT22;8244;50.044;9.006;2022-11-04T10:08:46;12.70;99.90
16273;DHT22;8244;50.044;9.006;2022-11-04T10:14:01;12.80;99.90
16273;DHT22;8244;50.044;9.006;2022-11-04T10:19:20;12.90;99.90
16273;DHT22;8244;50.044;9.006;2022-11-04T10:24:35;13.20;99.90
16273;DHT22;8244;50.044;9.006;2022-11-04T10:29:43;13.50;99.90
16273;DHT22;8244;50.044;9.006;2022-11-04T10:34:48;13.80;99.90
16273;DHT22;8244;50.044;9.006;2022-11-04T10:40:16;14.00;99.90
16273;DHT22;8244;50.044;9.006;2022-11-04T10:45:25;14.40;99.90
16273;DHT22;8244;50.044;9.006;2022-11-04T10:50:34;14.80;99.90
16273;DHT22;8244;50.044;9.006;2022-11-04T10:55:42;15.00;99.90
16273;DHT22;8244;50.044;9.006;2022-11-04T11:00:46;15.00;99.90
16273;DHT22;8244;50.044;9.006;2022-11-04T11:05:48;15.10;99.90
16273;DHT22;8244;50.044;9.006;2022-11-04T11:10:51;15.20;99.90
16273;DHT22;8244;50.044;9.006;2022-11-04T11:16:07;15.40;99.90
16273;DHT22;8244;50.044;9.006;2022-11-04T11:21:12;15.60;99.90
16273;DHT22;8244;50.044;9.006;2022-11-04T11:26:18;16.00;99.90
16273;DHT22;8244;50.044;9.006;2022-11-04T11:31:20;16.00;99.90
16273;DHT22;8244;50.044;9.006;2022-11-04T11:36:29;16.10;99.90
16273;DHT22;8244;50.044;9.006;2022-11-04T11:41:34;16.10;99.90
16273;DHT22;8244;50.044;9.006;2022-11-04T11:46:51;16.20;99.90
16273;DHT22;8244;50.044;9.006;2022-11-04T11:51:55;16.20;99.90
16273;DHT22;8244;50.044;9.006;2022-11-04T11:57:00;16.20;99.90
16273;DHT22;8244;50.044;9.006;2022-11-04T12:02:24;16.50;99.90
16273;DHT22;8244;50.044;9.006;2022-11-04T12:07:31;16.50;99.90
16273;DHT22;8244;50.044;9.006;2022-11-04T12:12:49;16.70;99.90
16273;DHT22;8244;50.044;9.006;2022-11-04T12:18:06;16.80;99.90
16273;DHT22;8244;50.044;9.006;2022-11-04T12:23:18;16.80;99.90
16273;DHT22;8244;50.044;9.006;2022-11-04T12:28:28;16.80;99.90
16273;DHT22;8244;50.044;9.006;2022-11-04T12:33:37;16.80;99.90
16273;DHT22;8244;50.044;9.006;2022-11-04T12:38:54;16.70;99.90
16273;DHT22;8244;50.044;9.006;2022-11-04T12:44:07;16.70;99.90
16273;DHT22;8244;50.044;9.006;2022-11-04T12:49:35;16.60;99.90
16273;DHT22;8244;50.044;9.006;2022-11-04T12:54:50;16.60;99.90
16273;DHT22;8244;50.044;9.006;2022-11-04T13:00:09;16.40;99.90
16273;DHT22;8244;50.044;9.006;2022-11-04T13:05:34;16.20;99.90
16273;DHT22;8244;50.044;9.006;2022-11-04T13:10:41;16.00;99.90
16273;DHT22;8244;50.044;9.006;2022-11-04T13:15:50;15.80;99.90
16273;DHT22;8244;50.044;9.006;2022-11-04T13:20:57;15.70;99.90
16273;DHT22;8244;50.044;9.006;2022-11-04T13:26:00;15.70;99.90
16273;DHT22;8244;50.044;9.006;2022-11-04T13:31:10;15.80;99.90
16273;DHT22;8244;50.044;9.006;2022-11-04T13:36:24;15.70;99.90
16273;DHT22;8244;50.044;9.006;2022-11-04T13:41:54;15.60;99.90
16273;DHT22;8244;50.044;9.006;2022-11-04T13:47:01;15.50;99.90
16273;DHT22;8244;50.044;9.006;2022-11-04T13:52:06;15.50;99.90
16273;DHT22;8244;50.044;9.006;2022-11-04T13:57:11;15.60;99.90
16273;DHT22;8244;50.044;9.006;2022-11-04T14:02:36;15.60;99.90
16273;DHT22;8244;50.044;9.006;2022-11-04T14:08:08;15.60;99.90
16273;DHT22;8244;50.044;9.006;2022-11-04T14:13:40;15.70;99.90
16273;DHT22;8244;50.044;9.006;2022-11-04T14:18:46;15.60;99.90
16273;DHT22;8244;50.044;9.006;2022-11-04T14:23:49;15.60;99.90
16273;DHT22;8244;50.044;9.006;2022-11-04T14:29:00;15.50;99.90
16273;DHT22;8244;50.044;9.006;2022-11-04T14:34:05;15.50;99.90
16273;DHT22;8244;50.044;9.006;2022-11-04T14:39:21;15.40;99.90
16273;DHT22;8244;50.044;9.006;2022-11-04T14:44:31;15.40;99.90
16273;DHT22;8244;50.044;9.006;2022-11-04T14:49:42;15.30;99.90
16273;DHT22;8244;50.044;9.006;2022-11-04T14:54:45;15.20;99.90
16273;DHT22;8244;50.044;9.006;2022-11-04T14:59:47;15.10;99.90
16273;DHT22;8244;50.044;9.006;2022-11-04T15:04:56;14.90;99.90
16273;DHT22;8244;50.044;9.006;2022-11-04T15:09:58;14.80;99.90
16273;DHT22;8244;50.044;9.006;2022-11-04T15:14:59;14.60;99.90
16273;DHT22;8244;50.044;9.006;2022-11-04T15:20:03;14.50;99.90
16273;DHT22;8244;50.044;9.006;2022-11-04T15:25:09;14.40;99.90
16273;DHT22;8244;50.044;9.006;2022-11-04T15:30:19;14.20;99.90
16273;DHT22;8244;50.044;9.006;2022-11-04T15:35:23;14.00;99.90
16273;DHT22;8244;50.044;9.006;2022-11-04T15:40:26;13.80;99.90
16273;DHT22;8244;50.044;9.006;2022-11-04T15:45:34;13.70;99.90
16273;DHT22;8244;50.044;9.006;2022-11-04T15:50:38;13.60;99.90
16273;DHT22;8244;50.044;9.006;2022-11-04T15:55:40;13.40;99.90
16273;DHT22;8244;50.044;9.006;2022-11-04T16:00:50;13.20;99.90
16273;DHT22;8244;50.044;9.006;2022-11-04T16:06:05;13.10;99.90
16273;DHT22;8244;50.044;9.006;2022-11-04T16:11:08;12.90;99.90
16273;DHT22;8244;50.044;9.006;2022-11-04T16:16:20;12.80;99.90
16273;DHT22;8244;50.044;9.006;2022-11-04T16:21:27;12.70;99.90
16273;DHT22;8244;50.044;9.006;2022-11-04T16:26:35;12.60;99.90
16273;DHT22;8244;50.044;9.006;2022-11-04T16:31:37;12.50;99.90
16273;DHT22;8244;50.044;9.006;2022-11-04T16:36:40;12.40;99.90
16273;DHT22;8244;50.044;9.006;2022-11-04T16:41:42;12.30;99.90
16273;DHT22;8244;50.044;9.006;2022-11-04T16:46:44;12.20;99.90
16273;DHT22;8244;50.044;9.006;2022-11-04T16:51:49;12.20;99.90
16273;DHT22;8244;50.044;9.006;2022-11-04T16:56:52;12.10;99.90
16273;DHT22;8244;50.044;9.006;2022-11-04T17:01:54;12.00;99.90
16273;DHT22;8244;50.044;9.006;2022-11-04T17:06:57;12.00;99.90
16273;DHT22;8244;50.044;9.006;2022-11-04T17:11:59;11.90;99.90
16273;DHT22;8244;50.044;9.006;2022-11-04T17:17:01;11.80;99.90
16273;DHT22;8244;50.044;9.006;2022-11-04T17:22:06;11.80;99.90
16273;DHT22;8244;50.044;9.006;2022-11-04T17:27:07;11.70;99.90
16273;DHT22;8244;50.044;9.006;2022-11-04T17:32:09;11.60;99.90
16273;DHT22;8244;50.044;9.006;2022-11-04T17:37:12;11.60;99.90
16273;DHT22;8244;50.044;9.006;2022-11-04T17:42:14;11.50;99.90
16273;DHT22;8244;50.044;9.006;2022-11-04T17:47:34;11.40;99.90
16273;DHT22;8244;50.044;9.006;2022-11-04T17:52:37;11.30;99.90
16273;DHT22;8244;50.044;9.006;2022-11-04T17:57:39;11.30;99.90
16273;DHT22;8244;50.044;9.006;2022-11-04T18:02:41;11.30;99.90
16273;DHT22;8244;50.044;9.006;2022-11-04T18:07:44;11.20;99.90
16273;DHT22;8244;50.044;9.006;2022-11-04T18:12:46;11.20;99.90
16273;DHT22;8244;50.044;9.006;2022-11-04T18:17:47;11.20;99.90
16273;DHT22;8244;50.044;9.006;2022-11-04T18:22:51;11.10;99.90
16273;DHT22;8244;50.044;9.006;2022-11-04T18:27:53;11.10;99.90
16273;DHT22;8244;50.044;9.006;2022-11-04T18:32:54;11.10;99.90
16273;DHT22;8244;50.044;9.006;2022-11-04T18:37:57;11.00;99.90
16273;DHT22;8244;50.044;9.006;2022-11-04T18:42:59;11.00;99.90
16273;DHT22;8244;50.044;9.006;2022-11-04T18:48:01;11.00;99.90
16273;DHT22;8244;50.044;9.006;2022-11-04T18:53:04;10.90;99.90
16273;DHT22;8244;50.044;9.006;2022-11-04T18:58:06;10.80;99.90
16273;DHT22;8244;50.044;9.006;2022-11-04T19:03:07;10.80;99.90
16273;DHT22;8244;50.044;9.006;2022-11-04T19:08:11;10.80;99.90
16273;DHT22;8244;50.044;9.006;2022-11-04T19:13:13;10.80;99.90
16273;DHT22;8244;50.044;9.006;2022-11-04T19:18:20;10.80;99.90
16273;DHT22;8244;50.044;9.006;2022-11-04T19:23:23;10.70;99.90
16273;DHT22;8244;50.044;9.006;2022-11-04T19:28:25;10.70;99.90
16273;DHT22;8244;50.044;9.006;2022-11-04T19:33:27;10.70;99.90
16273;DHT22;8244;50.044;9.006;2022-11-04T19:38:30;10.70;99.90
16273;DHT22;8244;50.044;9.006;2022-11-04T19:43:32;10.70;99.90
16273;DHT22;8244;50.044;9.006;2022-11-04T19:48:34;10.70;99.90
16273;DHT22;8244;50.044;9.006;2022-11-04T19:53:37;10.70;99.90
16273;DHT22;8244;50.044;9.006;2022-11-04T19:58:38;10.70;99.90
16273;DHT22;8244;50.044;9.006;2022-11-04T20:03:40;10.60;99.90
16273;DHT22;8244;50.044;9.006;2022-11-04T20:08:46;10.60;99.90
16273;DHT22;8244;50.044;9.006;2022-11-04T20:13:48;10.60;99.90
16273;DHT22;8244;50.044;9.006;2022-11-04T20:18:52;10.50;99.90
16273;DHT22;8244;50.044;9.006;2022-11-04T20:23:59;10.50;99.90
16273;DHT22;8244;50.044;9.006;2022-11-04T20:29:02;10.40;99.90
16273;DHT22;8244;50.044;9.006;2022-11-04T20:34:06;10.40;99.90
16273;DHT22;8244;50.044;9.006;2022-11-04T20:39:12;10.40;99.90
16273;DHT22;8244;50.044;9.006;2022-11-04T20:44:14;10.40;99.90
16273;DHT22;8244;50.044;9.006;2022-11-04T20:49:16;10.40;99.90
16273;DHT22;8244;50.044;9.006;2022-11-04T20:54:19;10.30;99.90
16273;DHT22;8244;50.044;9.006;2022-11-04T20:59:21;10.30;99.90
16273;DHT22;8244;50.044;9.006;2022-11-04T21:04:23;10.30;99.90
16273;DHT22;8244;50.044;9.006;2022-11-04T21:09:25;10.30;99.90
16273;DHT22;8244;50.044;9.006;2022-11-04T21:14:29;10.30;99.90
16273;DHT22;8244;50.044;9.006;2022-11-04T21:19:34;10.20;99.90
16273;DHT22;8244;50.044;9.006;2022-11-04T21:24:36;10.20;99.90
16273;DHT22;8244;50.044;9.006;2022-11-04T21:29:38;10.00;99.90
16273;DHT22;8244;50.044;9.006;2022-11-04T21:34:40;10.00;99.90
16273;DHT22;8244;50.044;9.006;2022-11-04T21:39:43;10.00;99.90
16273;DHT22;8244;50.044;9.006;2022-11-04T21:44:45;10.00;99.90
16273;DHT22;8244;50.044;9.006;2022-11-04T21:49:46;10.00;99.90
16273;DHT22;8244;50.044;9.006;2022-11-04T21:54:51;10.00;99.90
16273;DHT22;8244;50.044;9.006;2022-11-04T21:59:52;10.00;99.90
16273;DHT22;8244;50.044;9.006;2022-11-04T22:04:54;10.10;99.90
16273;DHT22;8244;50.044;9.006;2022-11-04T22:09:57;10.00;99.90
16273;DHT22;8244;50.044;9.006;2022-11-04T22:14:59;10.00;99.90
16273;DHT22;8244;50.044;9.006;2022-11-04T22:20:00;10.00;99.90
16273;DHT22;8244;50.044;9.006;2022-11-04T22:25:04;9.90;99.90
16273;DHT22;8244;50.044;9.006;2022-11-04T22:30:08;9.90;99.90
16273;DHT22;8244;50.044;9.006;2022-11-04T22:35:10;9.90;99.90
16273;DHT22;8244;50.044;9.006;2022-11-04T22:40:13;9.80;99.90
16273;DHT22;8244;50.044;9.006;2022-11-04T22:45:15;9.80;99.90
16273;DHT22;8244;50.044;9.006;2022-11-04T22:50:17;9.80;99.90
16273;DHT22;8244;50.044;9.006;2022-11-04T22:55:20;9.80;99.90
16273;DHT22;8244;50.044;9.006;2022-11-04T23:00:21;9.90;99.90
16273;DHT22;8244;50.044;9.006;2022-11-04T23:05:23;9.80;99.90
16273;DHT22;8244;50.044;9.006;2022-11-04T23:10:28;9.80;99.90
16273;DHT22;8244;50.044;9.006;2022-11-04T23:15:47;9.80;99.90
16273;DHT22;8244;50.044;9.006;2022-11-04T23:21:07;9.90;99.90
16273;DHT22;8244;50.044;9.006;2022-11-04T23:26:29;9.90;99.90
16273;DHT22;8244;50.044;9.006;2022-11-04T23:31:31;9.80;99.90
16273;DHT22;8244;50.044;9.006;2022-11-04T23:36:32;9.90;99.90
16273;DHT22;8244;50.044;9.006;2022-11-04T23:41:53;9.80;99.90
16273;DHT22;8244;50.044;9.006;2022-11-04T23:47:12;9.80;99.90
16273;DHT22;8244;50.044;9.006;2022-11-04T23:52:32;9.80;99.90
16273;DHT22;8244;50.044;9.006;2022-11-04T23:57:53;9.80;99.90
